Flight Track Log - Related Links

Times and Time Zones

All times are in EDT time to prevent confusion due to time zone crossing. See the SWA2336 flight status page for this flight to view local times or setup timezone preferences in your user account.

Time Position Orientation Groundspeed Altitude Reporting Facility
EDT Latitude Longitude Course Direction KTS MPH feet Rate Location/Type
Thu 01:24:14 PM 30.2919 -97.5950 23° Northeast 220 253 4,600  Level Houston Center
Thu 01:25:16 PM 30.3617 -97.5228 42° Northeast 276 318 8,200 3,000 Climbing Houston Center
Thu 01:26:18 PM 30.4253 -97.4558 42° Northeast 298 343 10,800 2,195 Climbing Houston Center
Thu 01:27:19 PM 30.5008 -97.3747 43° Northeast 359 413 12,700 2,390 Climbing Houston Center
Thu 01:28:00 PM 30.6549 -97.1731 47° Northeast  Level FlightAware Approximate
Thu 01:28:21 PM 30.5806 -97.2892 43° Northeast 385 443 15,700  Level Houston Center
Thu 01:29:00 PM 30.7231 -97.1051 23° Northeast  Level FlightAware Approximate
Thu 01:29:23 PM 30.6578 -97.1986 45° Northeast 393 452 18,200  Level Houston Center
Thu 01:30:25 PM 30.7367 -97.1019 46° Northeast 408 470 20,600 1,839 Climbing Houston Center
Thu 01:31:27 PM 30.8175 -97.0053 46° Northeast 415 478 22,000 480 Climbing Houston Center
Thu 01:33:20 PM 30.9883 -96.8003 46° Northeast 429 494 22,000  Level Fort Worth Center
Thu 01:34:20 PM 31.0736 -96.6978 46° Northeast 429 494 22,000  Level Fort Worth Center
Thu 01:35:20 PM 31.1542 -96.6000 46° Northeast 422 486 22,000 -202 Level Fort Worth Center
Thu 01:36:19 PM 31.2350 -96.5022 46° Northeast 416 479 21,600 -474 Descending Fort Worth Center
Thu 01:36:36 PM 31.2483 -96.4867 45° Northeast 412 474 21,400 -793 Descending Houston Center
Thu 01:38:20 PM 31.4350 -96.4322 14° North 379 436 20,000 -677 Descending Fort Worth Center
Thu 01:38:40 PM 31.4542 -96.4281 11° North 385 443 20,000  Level Houston Center
Thu 01:39:42 PM 31.5786 -96.4203 North 382 440 20,000  Level Houston Center
Thu 01:40:19 PM 31.6375 -96.4203 360° North 374 430 20,000 -429 Level Fort Worth Center
Thu 01:41:20 PM 31.7417 -96.4142 North 379 436 19,300 -1,300 Descending Fort Worth Center
Thu 01:42:19 PM 31.8397 -96.4058 North 366 421 17,400 -1,967 Descending Fort Worth Center
Thu 01:44:20 PM 32.0214 -96.3917 North 323 372 13,400 -1,956 Descending Fort Worth Center
Thu 01:45:20 PM 32.1111 -96.3956 358° North 317 365 11,500 -1,700 Descending Fort Worth Center
Thu 01:46:20 PM 32.2028 -96.3872 North 311 358 10,000 -900 Descending Fort Worth Center
Thu 01:47:20 PM 32.2844 -96.3936 356° North 299 344 9,700 -500 Descending Fort Worth Center
Thu 01:48:20 PM 32.3494 -96.4322 333° Northwest 270 311 9,000 -1,000 Descending Fort Worth Center
Thu 01:49:20 PM 32.4144 -96.4758 330° Northwest 265 305 7,700 -1,200 Descending Fort Worth Center
Thu 01:50:20 PM 32.4753 -96.5169 330° Northwest 260 299 6,600 -1,050 Descending Fort Worth Center
Thu 01:51:20 PM 32.5383 -96.5583 331° Northwest 255 293 5,600 -800 Descending Fort Worth Center
Thu 01:52:20 PM 32.5969 -96.5997 329° Northwest 255 293 5,000 -300 Descending Fort Worth Center
Thu 01:53:20 PM 32.6494 -96.6336 331° Northwest 255 293 5,000 -408 Level Fort Worth Center
Thu 01:54:03 PM 32.6833 -96.6833 309° West 227 261 4,300 -990 Descending Dallas / Fort Worth TRACON
Thu 01:55:03 PM 32.7333 -96.7333 320° Northwest 222 255 3,300 -1,000 Descending Dallas / Fort Worth TRACON
Thu 01:56:03 PM 32.7667 -96.7667 320° Northwest 185 213 2,300 -950 Descending Dallas / Fort Worth TRACON
Thu 01:57:03 PM 32.8000 -96.8000 320° Northwest 137 158 1,400 -900 Descending Dallas / Fort Worth TRACON

Login

Don't have an account? Register now (free) for customized features, flight alerts, and more!